Time;durP1;ratioP1;P1;durP2;ratioP2;P2;SDS_P1;SDS_P2;PMS_P1;PMS_P2;Temp;Humidity;BMP_temperature;BMP_pressure;BME280_temperature;BME280_humidity;BME280_pressure;Samples;Min_cycle;Max_cycle;Signal;HPM_P1;HPM_P2
2023/08/24 00:00:49;;;;;;;3.80;1.83;;;20.50;99.90;;;21.03;100.00;101181.84;5145636;28;20054;-67
2023/08/24 00:03:22;;;;;;;3.85;2.00;;;20.50;99.90;;;20.98;100.00;101181.84;5144029;28;20074;-65
2023/08/24 00:05:56;;;;;;;3.20;2.00;;;20.50;99.90;;;20.95;100.00;101181.00;5145457;28;20067;-68
2023/08/24 00:08:28;;;;;;;3.55;1.98;;;20.40;99.90;;;20.91;100.00;101184.50;5145148;28;20518;-67
2023/08/24 00:11:01;;;;;;;2.50;1.80;;;20.40;99.90;;;20.88;100.00;101180.13;5145240;28;20053;-67
2023/08/24 00:13:33;;;;;;;3.90;1.80;;;20.40;99.90;;;20.85;100.00;101178.34;5145091;28;20055;-67
2023/08/24 00:16:05;;;;;;;2.97;1.80;;;20.30;99.90;;;20.85;100.00;101175.69;5145514;28;20043;-67
2023/08/24 00:18:37;;;;;;;2.00;1.52;;;20.30;99.90;;;20.82;100.00;101175.69;5145741;28;20146;-67
2023/08/24 00:21:11;;;;;;;3.17;1.90;;;20.40;99.90;;;20.80;100.00;101174.84;5145368;28;20039;-67
2023/08/24 00:23:44;;;;;;;4.20;2.00;;;20.30;99.90;;;20.79;100.00;101175.69;5143628;28;20043;-68
2023/08/24 00:26:17;;;;;;;3.30;1.90;;;20.30;99.90;;;20.76;100.00;101167.75;5145066;28;20042;-64
2023/08/24 00:28:50;;;;;;;3.90;1.80;;;20.30;99.90;;;20.73;100.00;101165.09;5143581;28;20233;-68
2023/08/24 00:31:22;;;;;;;2.83;1.70;;;20.20;99.90;;;20.69;100.00;101171.31;5143932;28;20051;-67
2023/08/24 00:33:54;;;;;;;2.72;1.80;;;20.20;99.90;;;20.67;100.00;101174.81;5143726;28;20519;-65
2023/08/24 00:36:28;;;;;;;3.58;1.95;;;20.20;99.90;;;20.64;100.00;101169.53;5144806;28;20049;-65
2023/08/24 00:39:00;;;;;;;4.15;2.03;;;20.10;99.90;;;20.60;100.00;101176.59;5143612;28;20150;-68
2023/08/24 00:41:32;;;;;;;3.80;2.00;;;20.10;99.90;;;20.59;100.00;101182.75;5143704;28;20114;-66
2023/08/24 00:44:07;;;;;;;3.25;1.90;;;20.10;99.90;;;20.59;100.00;101175.69;5143393;28;20047;-65
2023/08/24 00:46:39;;;;;;;3.10;1.77;;;20.10;99.90;;;20.61;100.00;101170.44;5143279;28;20141;-67
2023/08/24 00:49:11;;;;;;;4.65;1.95;;;20.10;99.90;;;20.63;100.00;101167.78;5144774;28;20050;-69
2023/08/24 00:53:18;;;;;;;3.92;2.00;;;20.10;99.90;;;20.59;100.00;101169.53;5274632;27;20400;-56
2023/08/24 00:55:51;;;;;;;3.85;1.95;;;20.10;99.90;;;20.56;100.00;101169.53;5259928;28;20051;-54
2023/08/24 00:58:24;;;;;;;3.35;1.85;;;20.10;99.90;;;20.54;100.00;101168.66;5212119;28;20094;-55
2023/08/24 01:00:59;;;;;;;3.95;2.05;;;20.00;99.90;;;20.54;100.00;101168.66;5260575;28;20066;-56
2023/08/24 01:03:32;;;;;;;2.65;1.90;;;20.10;99.90;;;20.56;100.00;101162.47;5260537;28;20052;-55
2023/08/24 01:06:04;;;;;;;4.32;2.30;;;20.00;99.90;;;20.56;100.00;101159.81;5260827;28;20086;-57
2023/08/24 01:08:41;;;;;;;3.65;2.40;;;20.10;99.90;;;20.52;100.00;101147.47;5256485;28;20067;-56
2023/08/24 01:11:26;;;;;;;3.35;2.13;;;20.00;99.90;;;20.49;100.00;101144.81;5259880;28;20055;-58
2023/08/24 01:14:06;;;;;;;3.25;2.05;;;20.00;99.90;;;20.46;100.00;101158.06;5260567;28;20131;-56
2023/08/24 01:16:41;;;;;;;2.90;2.10;;;20.00;99.90;;;20.42;100.00;101150.97;5260625;28;20136;-56
2023/08/24 01:19:40;;;;;;;3.08;1.95;;;20.00;99.90;;;20.38;100.00;101146.56;5277773;28;20048;-55
2023/08/24 01:22:34;;;;;;;3.15;2.28;;;19.90;99.90;;;20.37;100.00;101151.84;5260523;28;20707;-56
2023/08/24 01:25:17;;;;;;;2.72;2.30;;;19.90;99.90;;;20.35;100.00;101156.28;5277276;28;20465;-56
2023/08/24 01:27:51;;;;;;;3.85;1.90;;;19.80;99.90;;;20.35;100.00;101148.34;5260329;28;20502;-57
2023/08/24 01:30:24;;;;;;;3.60;1.95;;;19.90;99.90;;;20.35;100.00;101156.28;5260057;28;20048;-57
2023/08/24 01:32:56;;;;;;;3.25;2.00;;;19.80;99.90;;;20.33;100.00;101154.47;5259914;28;20094;-55
2023/08/24 01:35:29;;;;;;;3.95;2.40;;;19.90;99.90;;;20.33;100.00;101154.47;5276998;28;20055;-56
2023/08/24 01:38:03;;;;;;;3.33;1.77;;;19.90;99.90;;;20.29;100.00;101150.09;5260040;28;20063;-57
2023/08/24 01:40:47;;;;;;;3.05;2.25;;;19.80;99.90;;;20.25;100.00;101152.72;5261463;28;20516;-56
2023/08/24 01:43:27;;;;;;;4.28;2.20;;;19.80;99.90;;;20.21;100.00;101143.91;5259926;28;20127;-56
2023/08/24 01:46:00;;;;;;;2.97;2.15;;;19.70;99.90;;;20.19;100.00;101140.34;5259886;28;20040;-54
2023/08/24 01:48:33;;;;;;;3.53;1.83;;;19.70;99.90;;;20.14;100.00;101135.94;5277000;28;20055;-57
2023/08/24 01:51:06;;;;;;;2.80;2.00;;;19.70;99.90;;;20.10;100.00;101135.06;5259541;28;20127;-57
2023/08/24 01:53:40;;;;;;;3.28;2.08;;;19.70;99.90;;;20.08;100.00;101136.81;5259876;28;20048;-56
2023/08/24 01:56:14;;;;;;;2.50;1.80;;;19.60;99.90;;;20.06;100.00;101125.34;5277137;28;20045;-55
2023/08/24 01:58:52;;;;;;;3.83;2.17;;;19.60;99.90;;;20.03;100.00;101133.31;5276404;28;20044;-56
2023/08/24 02:01:25;;;;;;;3.50;2.20;;;19.60;99.90;;;20.01;100.00;101121.81;5259676;28;20067;-56
2023/08/24 02:03:59;;;;;;;4.18;2.13;;;19.60;99.90;;;20.00;100.00;101122.69;5249240;28;20052;-56
2023/08/24 02:06:32;;;;;;;3.70;2.50;;;19.50;99.90;;;19.98;100.00;101111.25;5245568;28;20118;-58
2023/08/24 02:09:05;;;;;;;5.03;2.35;;;19.50;99.90;;;19.96;100.00;101102.44;5245610;28;20055;-56
2023/08/24 02:11:37;;;;;;;3.85;2.17;;;19.50;99.90;;;19.92;100.00;101090.94;5245210;28;20048;-57
2023/08/24 02:14:11;;;;;;;3.22;1.88;;;19.50;99.90;;;19.92;100.00;101088.31;5262419;28;20040;-56
2023/08/24 02:16:43;;;;;;;3.72;2.15;;;19.50;99.90;;;19.91;100.00;101088.31;5245451;28;20075;-56
2023/08/24 02:19:16;;;;;;;4.15;2.10;;;19.50;99.90;;;19.90;100.00;101084.78;5245295;28;20127;-57
2023/08/24 02:21:48;;;;;;;2.65;1.90;;;19.50;99.90;;;19.90;100.00;101091.84;5245106;28;20091;-54
2023/08/24 02:24:21;;;;;;;5.20;2.22;;;19.50;99.90;;;19.87;100.00;101095.34;5245225;28;20056;-56
2023/08/24 02:26:53;;;;;;;4.07;2.47;;;19.40;99.90;;;19.88;100.00;101090.94;5246467;28;20415;-56
2023/08/24 02:29:27;;;;;;;4.47;2.40;;;19.50;99.90;;;19.91;100.00;101090.94;5245039;28;20139;-56
2023/08/24 02:32:00;;;;;;;3.55;2.10;;;19.50;99.90;;;19.92;100.00;101084.78;5261691;28;20047;-57
2023/08/24 02:34:32;;;;;;;3.05;2.00;;;19.50;99.90;;;19.94;100.00;101081.22;5245003;28;20048;-57
2023/08/24 02:37:05;;;;;;;3.90;2.00;;;19.50;99.90;;;19.97;100.00;101075.09;5245258;28;20133;-57
2023/08/24 02:39:37;;;;;;;3.50;1.95;;;19.50;99.90;;;19.99;100.00;101070.66;5261756;28;20045;-55
2023/08/24 02:42:10;;;;;;;3.05;2.08;;;19.60;99.90;;;20.02;100.00;101068.03;5244863;28;20045;-56
2023/08/24 02:44:47;;;;;;;4.35;2.00;;;19.60;99.90;;;20.04;100.00;101068.91;5244933;28;20526;-58
2023/08/24 02:47:19;;;;;;;3.75;2.00;;;19.60;99.90;;;20.05;100.00;101062.72;5245077;28;20045;-55
2023/08/24 02:49:53;;;;;;;4.18;2.13;;;19.60;99.90;;;20.05;100.00;101078.59;5261690;28;20368;-58
2023/08/24 02:52:25;;;;;;;3.45;2.28;;;19.60;99.90;;;20.04;100.00;101077.72;5244514;28;20048;-55
2023/08/24 02:55:01;;;;;;;3.63;2.05;;;19.60;99.90;;;20.05;100.00;101074.19;5261510;28;20052;-56
2023/08/24 02:57:35;;;;;;;2.35;1.80;;;19.60;99.90;;;20.04;100.00;101076.84;5244642;28;20510;-56
2023/08/24 03:00:13;;;;;;;3.00;2.10;;;19.60;99.90;;;20.02;100.00;101081.28;5244584;28;20506;-57
2023/08/24 03:02:45;;;;;;;3.78;2.15;;;19.60;99.90;;;20.01;100.00;101082.13;5244433;28;20049;-56
2023/08/24 03:05:18;;;;;;;4.68;2.15;;;19.50;99.90;;;19.99;100.00;101078.59;5244822;28;20139;-56
2023/08/24 03:07:51;;;;;;;6.50;3.00;;;19.60;99.90;;;20.00;100.00;101080.34;5244417;28;20048;-57
2023/08/24 03:10:23;;;;;;;3.42;2.35;;;19.60;99.90;;;20.02;100.00;101081.28;5244385;28;20101;-57
2023/08/24 03:12:56;;;;;;;3.92;2.30;;;19.60;99.90;;;20.04;100.00;101082.13;5261178;28;20048;-55
2023/08/24 03:15:30;;;;;;;4.05;2.20;;;19.60;99.90;;;20.04;100.00;101083.03;5243194;28;20406;-54
2023/08/24 03:18:03;;;;;;;3.47;2.30;;;19.60;99.90;;;20.08;100.00;101083.00;5243938;28;20079;-56
2023/08/24 03:20:36;;;;;;;3.70;2.17;;;19.60;99.90;;;20.09;100.00;101077.75;5244084;28;20056;-57
2023/08/24 03:23:08;;;;;;;3.05;2.10;;;19.70;99.90;;;20.11;100.00;101062.72;5243996;28;20055;-56
2023/08/24 03:25:43;;;;;;;4.03;2.55;;;19.70;99.90;;;20.12;100.00;101063.63;5260621;28;20041;-56
2023/08/24 03:28:15;;;;;;;;;;;19.70;99.90;;;20.12;100.00;101063.63;5244325;28;20067;-57
2023/08/24 03:30:55;;;;;;;3.53;2.15;;;19.70;99.90;;;20.11;100.00;101068.03;5260878;28;19931;-57
2023/08/24 03:33:28;;;;;;;2.47;1.92;;;19.70;99.90;;;20.13;100.00;101071.53;5243847;28;20416;-55
2023/08/24 03:36:00;;;;;;;4.93;2.47;;;19.70;99.90;;;20.14;100.00;101068.00;5244184;28;20143;-57
2023/08/24 03:38:34;;;;;;;3.80;2.30;;;19.70;99.90;;;20.15;100.00;101072.44;5243797;28;20053;-57
2023/08/24 03:41:06;;;;;;;2.72;2.00;;;19.70;99.90;;;20.16;100.00;101076.84;5244111;28;20059;-56
2023/08/24 03:43:40;;;;;;;3.28;2.08;;;19.70;99.90;;;20.16;100.00;101081.28;5243718;28;20463;-58
2023/08/24 03:46:14;;;;;;;4.30;2.28;;;19.70;99.90;;;20.13;100.00;101092.72;5243668;28;20045;-56
2023/08/24 03:48:49;;;;;;;3.58;2.22;;;19.70;99.90;;;20.12;100.00;101103.31;5243452;28;20048;-54
2023/08/24 03:51:22;;;;;;;3.30;1.83;;;19.70;99.90;;;20.11;100.00;101115.66;5243003;28;20051;-54
2023/08/24 03:53:54;;;;;;;4.00;2.38;;;19.70;99.90;;;20.10;100.00;101127.13;5260211;28;20140;-58
2023/08/24 03:56:26;;;;;;;4.13;2.53;;;19.70;99.90;;;20.12;100.00;101143.88;5243605;28;20143;-56
2023/08/24 03:59:02;;;;;;;3.40;2.15;;;19.70;99.90;;;20.16;100.00;101150.97;5243357;28;20056;-57
2023/08/24 04:01:37;;;;;;;3.22;2.30;;;19.70;99.90;;;20.20;100.00;101157.13;5243342;28;20528;-55
2023/08/24 04:04:10;;;;;;;2.97;2.20;;;19.70;99.90;;;20.25;100.00;101161.53;5243404;28;20446;-56
2023/08/24 04:06:43;;;;;;;3.40;2.25;;;19.80;99.90;;;20.26;100.00;101160.66;5243307;28;20505;-57
2023/08/24 04:09:15;;;;;;;3.42;1.95;;;19.80;99.90;;;20.29;100.00;101171.28;5243361;28;20048;-56
2023/08/24 04:11:48;;;;;;;4.00;2.30;;;19.80;99.90;;;20.30;100.00;101165.09;5259814;28;20041;-56
2023/08/24 04:14:21;;;;;;;4.50;2.20;;;19.80;99.90;;;20.32;100.00;101162.44;5260139;28;20513;-57
2023/08/24 04:16:55;;;;;;;3.42;2.08;;;19.90;99.90;;;20.35;100.00;101150.97;5259849;28;20075;-56
2023/08/24 04:19:28;;;;;;;4.40;2.50;;;19.80;99.90;;;20.33;100.00;101143.88;5243094;28;20406;-56
2023/08/24 04:22:00;;;;;;;4.28;2.40;;;19.90;99.90;;;20.31;100.00;101140.38;5242843;28;20409;-56
2023/08/24 04:24:32;;;;;;;3.42;2.38;;;19.90;99.90;;;20.31;100.00;101135.06;5244265;28;20734;-54
2023/08/24 04:27:05;;;;;;;4.18;2.92;;;19.80;99.90;;;20.30;100.00;101143.03;5242767;28;20048;-54
2023/08/24 04:29:37;;;;;;;5.50;2.80;;;19.90;99.90;;;20.28;100.00;101131.56;5242790;28;20052;-54
2023/08/24 04:32:11;;;;;;;3.38;2.35;;;19.90;99.90;;;20.22;100.00;101140.38;5259581;28;20044;-54
2023/08/24 04:34:43;;;;;;;5.18;2.65;;;19.90;99.90;;;20.20;100.00;101144.78;5242942;28;20049;-54
2023/08/24 04:37:16;;;;;;;4.18;2.20;;;19.80;99.90;;;20.20;100.00;101147.41;5259831;28;20055;-55
2023/08/24 04:39:48;;;;;;;3.10;2.03;;;19.80;99.90;;;20.24;100.00;101153.63;5242855;28;20052;-54
2023/08/24 04:42:20;;;;;;;3.67;2.42;;;19.90;99.90;;;20.27;100.00;101151.81;5242745;28;20040;-55
2023/08/24 04:44:56;;;;;;;3.05;2.13;;;19.80;99.90;;;20.28;100.00;101150.09;5242949;28;20048;-56
2023/08/24 04:47:30;;;;;;;4.03;2.35;;;19.90;99.90;;;20.30;100.00;101154.50;5259357;28;20056;-54
2023/08/24 04:50:02;;;;;;;3.55;2.40;;;19.90;99.90;;;20.31;100.00;101148.31;5242797;28;20052;-54
2023/08/24 04:52:34;;;;;;;5.18;2.72;;;19.90;99.90;;;20.32;100.00;101128.00;5242416;28;20154;-54
2023/08/24 04:55:10;;;;;;;5.82;3.00;;;19.90;99.90;;;20.25;100.00;101113.03;5244132;28;20561;-54
2023/08/24 04:57:43;;;;;;;5.82;2.70;;;19.90;99.90;;;20.17;100.00;101105.09;5242726;28;20044;-55
2023/08/24 05:00:17;;;;;;;4.65;2.92;;;19.80;99.90;;;20.11;100.00;101094.50;5259411;28;20045;-53
2023/08/24 05:02:50;;;;;;;8.38;2.83;;;19.80;99.90;;;20.07;100.00;101066.25;5242329;28;20060;-55
2023/08/24 05:05:23;;;;;;;5.82;3.00;;;19.80;99.90;;;20.02;100.00;101075.97;5242514;28;20056;-55
2023/08/24 05:07:55;;;;;;;5.53;3.13;;;19.70;99.90;;;19.94;100.00;101090.94;5242437;28;20421;-54
2023/08/24 05:10:31;;;;;;;4.60;3.03;;;19.70;99.90;;;19.93;100.00;101105.94;5243868;28;20052;-55
2023/08/24 05:13:07;;;;;;;6.97;3.10;;;19.60;99.90;;;19.95;100.00;101108.56;5242141;28;20081;-55
2023/08/24 05:15:39;;;;;;;4.18;2.72;;;19.60;99.90;;;19.92;100.00;101108.59;5259345;28;20052;-55
2023/08/24 05:18:13;;;;;;;6.72;3.45;;;19.60;99.90;;;19.89;100.00;101108.59;5242474;28;20049;-55
2023/08/24 05:20:45;;;;;;;4.40;2.85;;;19.50;99.90;;;19.89;100.00;101098.91;5242424;28;20045;-55
2023/08/24 05:23:18;;;;;;;5.32;3.35;;;19.60;99.90;;;19.88;100.00;101080.34;5243751;28;20044;-55
2023/08/24 05:25:51;;;;;;;5.63;3.40;;;19.60;99.90;;;19.83;100.00;101068.91;5242477;28;20048;-54
2023/08/24 05:28:23;;;;;;;6.53;3.20;;;19.50;99.90;;;19.77;100.00;101041.56;5242295;28;20060;-54
2023/08/24 05:30:57;;;;;;;8.10;4.05;;;19.50;99.90;;;19.73;100.00;101023.91;5242179;28;20056;-54
2023/08/24 05:33:33;;;;;;;6.25;3.75;;;19.40;99.90;;;19.64;100.00;101010.69;5259068;28;20041;-54
2023/08/24 05:36:05;;;;;;;8.07;3.63;;;19.40;99.90;;;19.66;100.00;101011.56;5242362;28;20049;-55
2023/08/24 05:38:38;;;;;;;6.00;3.20;;;19.40;99.90;;;19.69;100.00;101016.88;5243795;28;20056;-54
2023/08/24 05:41:10;;;;;;;6.50;3.45;;;19.40;99.90;;;19.71;100.00;101009.81;5246079;28;20056;-56
2023/08/24 05:43:43;;;;;;;6.43;3.67;;;19.40;99.90;;;19.71;100.00;100993.94;5262918;28;20488;-55
2023/08/24 05:46:15;;;;;;;4.22;3.30;;;19.40;99.90;;;19.75;100.00;100997.44;5260664;28;20102;-55
2023/08/24 05:48:49;;;;;;;5.45;3.25;;;19.40;99.90;;;19.78;100.00;100995.72;5241925;28;20060;-54
2023/08/24 05:51:21;;;;;;;5.10;3.30;;;19.50;99.90;;;19.85;100.00;100990.41;5224919;28;20041;-54
2023/08/24 05:53:55;;;;;;;5.00;2.92;;;19.50;99.90;;;19.91;100.00;100995.72;5225268;28;20052;-55
2023/08/24 05:56:27;;;;;;;3.47;2.13;;;19.50;99.90;;;20.14;100.00;100993.91;5258104;28;20623;-55
2023/08/24 05:59:03;;;;;;;3.63;2.20;;;19.70;99.90;;;20.53;100.00;101000.03;5241069;28;20043;-56
2023/08/24 06:01:38;;;;;;;5.00;2.22;;;20.20;99.90;;;20.84;100.00;100993.75;5245419;28;20044;-55
2023/08/24 06:04:12;;;;;;;4.25;2.28;;;20.40;99.90;;;21.06;100.00;100986.59;5245863;28;20056;-55
2023/08/24 06:06:44;;;;;;;5.18;3.13;;;20.70;99.90;;;21.15;100.00;100980.38;5237057;28;20047;-55
2023/08/24 06:09:20;;;;;;;4.80;2.83;;;20.80;99.90;;;21.06;100.00;100973.34;5240199;28;20049;-54
2023/08/24 06:11:52;;;;;;;4.65;2.53;;;20.70;99.90;;;20.98;100.00;100974.25;5241207;28;20052;-54
2023/08/24 06:14:25;;;;;;;3.20;2.67;;;20.70;99.90;;;20.92;100.00;100976.94;5263926;28;20074;-56
2023/08/24 06:16:57;;;;;;;5.00;2.40;;;20.60;99.90;;;20.82;100.00;100973.47;5242529;28;20048;-54
2023/08/24 06:19:31;;;;;;;3.20;2.47;;;20.50;99.90;;;20.72;100.00;100972.63;5253230;28;20082;-54
2023/08/24 06:22:03;;;;;;;3.63;2.78;;;20.40;99.90;;;20.69;100.00;100972.63;5245225;28;20504;-54
2023/08/24 06:24:36;;;;;;;5.70;3.17;;;20.40;99.90;;;20.70;100.00;100974.41;5248168;28;20036;-53
2023/08/24 06:27:08;;;;;;;6.43;3.00;;;20.30;99.90;;;20.83;100.00;100976.09;5249370;28;20057;-55
2023/08/24 06:29:44;;;;;;;6.65;3.28;;;20.40;99.90;;;21.14;100.00;100975.97;5244752;28;20085;-55
2023/08/24 06:32:16;;;;;;;4.18;3.10;;;20.70;99.90;;;21.42;100.00;100966.09;5229747;28;20045;-54
2023/08/24 06:34:50;;;;;;;4.68;2.88;;;20.90;99.90;;;21.77;100.00;100965.81;5244725;28;20057;-55
2023/08/24 06:37:22;;;;;;;4.88;2.60;;;21.30;99.90;;;22.28;100.00;100965.34;5239997;28;20059;-56
2023/08/24 06:39:54;;;;;;;5.55;3.05;;;21.60;99.90;;;22.64;100.00;100958.75;5232063;28;20052;-54
2023/08/24 06:42:27;;;;;;;6.72;3.20;;;22.00;99.90;;;22.75;100.00;100954.16;5264444;28;20528;-55
2023/08/24 06:44:59;;;;;;;5.13;2.63;;;22.30;99.90;;;22.91;100.00;100953.13;5265659;28;20055;-54
2023/08/24 06:47:32;;;;;;;4.32;2.80;;;22.40;99.90;;;23.17;100.00;100949.22;5243278;28;20052;-55
2023/08/24 06:50:10;;;;;;;6.07;2.83;;;22.70;99.90;;;23.46;100.00;100939.00;5237766;28;20048;-55
2023/08/24 06:52:43;;;;;;;4.45;2.63;;;22.90;99.90;;;23.89;100.00;100946.31;5250659;28;20043;-55
2023/08/24 06:55:18;;;;;;;5.93;2.90;;;23.20;99.90;;;24.46;100.00;100943.50;5247118;28;20049;-55
2023/08/24 06:57:51;;;;;;;4.35;2.25;;;23.70;99.90;;;24.73;100.00;100942.03;5245427;28;20056;-56
2023/08/24 07:00:25;;;;;;;5.97;2.45;;;24.00;99.90;;;24.94;100.00;100951.38;5235335;28;20433;-56
2023/08/24 07:02:58;;;;;;;5.50;2.40;;;24.20;99.90;;;25.09;100.00;100943.03;5240035;28;20098;-55
2023/08/24 07:05:33;;;;;;;4.18;2.35;;;24.40;99.90;;;25.24;100.00;100938.28;5239548;28;20052;-55
2023/08/24 07:08:06;;;;;;;4.05;2.40;;;24.60;99.90;;;25.34;100.00;100929.16;5231547;28;20051;-55
2023/08/24 07:10:39;;;;;;;4.57;2.33;;;24.60;99.90;;;25.44;100.00;100914.69;5240556;28;20098;-55
2023/08/24 07:13:14;;;;;;;3.80;2.30;;;24.80;99.90;;;25.71;100.00;100916.63;5247924;28;20048;-55
2023/08/24 07:15:47;;;;;;;4.43;2.03;;;25.00;99.90;;;25.81;100.00;100916.41;5251661;28;20055;-55
2023/08/24 07:18:19;;;;;;;3.55;2.30;;;25.10;99.90;;;25.81;100.00;100913.75;5254055;28;20052;-55
2023/08/24 07:20:53;;;;;;;4.03;2.42;;;25.20;99.90;;;25.90;100.00;100910.84;5246331;28;20417;-55
2023/08/24 07:23:25;;;;;;;4.15;2.40;;;25.20;99.90;;;26.07;99.30;100905.03;5248051;28;20052;-55
2023/08/24 07:25:58;;;;;;;3.60;2.30;;;25.40;99.90;;;26.21;98.35;100898.41;5239840;28;20136;-55
2023/08/24 07:28:30;;;;;;;4.97;2.38;;;25.50;99.90;;;26.15;97.34;100903.06;5242814;28;20051;-55
2023/08/24 07:31:10;;;;;;;3.45;2.03;;;25.50;99.90;;;26.40;97.44;100903.25;5242968;28;20048;-55
2023/08/24 07:33:44;;;;;;;3.85;1.95;;;25.70;99.90;;;26.51;95.63;100898.47;5252157;28;20040;-55
2023/08/24 07:36:18;;;;;;;3.90;2.20;;;25.80;99.90;;;26.50;95.54;100900.28;5243785;28;20041;-56
2023/08/24 07:38:50;;;;;;;4.50;1.88;;;25.80;99.90;;;26.48;96.56;100899.47;5260423;28;20229;-55
2023/08/24 07:41:26;;;;;;;2.65;2.10;;;25.80;99.90;;;26.62;97.50;100907.06;5243846;28;20055;-55
2023/08/24 07:43:58;;;;;;;3.55;1.83;;;25.90;99.90;;;26.79;98.24;100903.88;5243658;28;20040;-54
2023/08/24 07:46:31;;;;;;;3.38;2.22;;;26.00;99.90;;;26.91;96.32;100905.28;5237966;28;20127;-54
2023/08/24 07:49:03;;;;;;;2.88;1.92;;;26.10;99.90;;;27.00;95.61;100910.38;5252525;28;20044;-55
2023/08/24 07:51:37;;;;;;;4.28;1.85;;;26.20;99.90;;;27.09;93.77;100911.91;5222064;28;20041;-56
2023/08/24 07:54:09;;;;;;;3.10;1.90;;;26.20;99.90;;;27.02;92.30;100912.06;5222501;28;20120;-55
2023/08/24 07:56:42;;;;;;;3.95;2.20;;;26.20;99.80;;;27.07;92.08;100901.25;5243767;28;20413;-55
2023/08/24 07:59:17;;;;;;;4.25;2.30;;;26.20;99.60;;;27.14;92.68;100909.97;5242998;28;20044;-55
2023/08/24 08:01:50;;;;;;;2.50;2.03;;;26.30;99.80;;;27.36;92.96;100902.09;5239346;28;20421;-55
2023/08/24 08:04:22;;;;;;;2.33;1.90;;;26.40;99.90;;;27.65;92.76;100918.09;5242829;28;20044;-54
2023/08/24 08:06:56;;;;;;;3.35;1.85;;;26.60;99.90;;;27.95;90.59;100907.25;5242667;28;20064;-54
2023/08/24 08:09:32;;;;;;;3.90;2.10;;;26.80;99.60;;;28.20;88.76;100917.97;5241906;28;20064;-55
2023/08/24 08:12:05;;;;;;;3.53;1.90;;;27.00;98.90;;;28.56;88.33;100905.94;5242680;28;20045;-54
2023/08/24 08:14:37;;;;;;;2.72;1.73;;;27.30;98.90;;;28.94;86.49;100900.91;5259235;28;20067;-53
2023/08/24 08:17:10;;;;;;;3.55;1.80;;;27.50;98.30;;;29.31;86.40;100905.66;5243048;28;20048;-55
2023/08/24 08:19:42;;;;;;;4.25;1.73;;;27.80;98.30;;;29.69;83.88;100903.22;5247421;28;20080;-55
2023/08/24 08:22:16;;;;;;;2.75;1.80;;;28.00;97.50;;;30.15;81.44;100898.53;5222359;28;20052;-56
2023/08/24 08:24:49;;;;;;;3.00;1.83;;;28.30;96.70;;;30.57;79.51;100884.06;5222274;28;20048;-55
2023/08/24 08:27:22;;;;;;;3.92;1.80;;;28.50;96.00;;;31.05;77.63;100883.56;5241384;28;20041;-54
2023/08/24 08:29:54;;;;;;;3.60;1.83;;;28.80;95.30;;;31.68;75.71;100891.22;5242689;28;20048;-55
2023/08/24 08:32:27;;;;;;;2.55;1.55;;;29.10;94.70;;;32.37;75.50;100880.41;5242606;28;20053;-56
2023/08/24 08:35:00;;;;;;;2.88;1.60;;;29.50;94.80;;;33.18;71.93;100895.59;5242634;28;20079;-56
2023/08/24 08:37:35;;;;;;;1.90;1.27;;;30.00;93.70;;;33.94;69.26;100892.09;5259456;28;20060;-55
2023/08/24 08:40:12;;;;;;;3.13;1.70;;;30.50;92.40;;;34.55;66.66;100888.25;5259539;28;20169;-53
2023/08/24 08:42:44;;;;;;;2.20;1.42;;;31.10;91.10;;;35.05;65.14;100886.84;5240033;28;20044;-56
2023/08/24 08:45:20;;;;;;;3.65;1.77;;;31.70;89.50;;;35.32;63.45;100879.59;5231014;28;20041;-55
2023/08/24 08:47:54;;;;;;;3.20;1.75;;;32.10;86.40;;;35.33;63.79;100873.19;5230746;28;20099;-57
2023/08/24 08:50:27;;;;;;;5.90;1.73;;;32.50;82.50;;;35.42;63.37;100876.31;5236715;28;20541;-56
2023/08/24 08:53:01;;;;;;;3.92;1.83;;;32.50;83.00;;;35.02;63.64;100866.28;5252397;28;20044;-55
2023/08/24 08:55:33;;;;;;;3.25;1.85;;;32.50;81.90;;;34.26;63.79;100863.91;5242354;28;20045;-56
2023/08/24 08:58:06;;;;;;;2.65;1.65;;;32.10;80.40;;;34.09;64.51;100858.66;5241425;28;20060;-54
2023/08/24 09:00:39;;;;;;;2.50;1.60;;;31.90;80.60;;;34.22;64.27;100853.34;5233421;28;20080;-56
2023/08/24 09:03:12;;;;;;;2.58;1.60;;;31.90;80.40;;;34.27;64.04;100846.69;5225734;28;20395;-53
2023/08/24 09:05:47;;;;;;;2.75;1.73;;;32.00;79.80;;;34.48;63.56;100840.91;5225380;28;20052;-54
2023/08/24 09:08:21;;;;;;;3.47;1.83;;;32.10;79.50;;;34.79;62.59;100834.38;5229138;28;20049;-56
2023/08/24 09:10:54;;;;;;;3.75;1.75;;;32.40;78.20;;;34.72;62.02;100830.34;5229161;28;20052;-54
2023/08/24 09:13:28;;;;;;;3.00;1.98;;;32.40;77.10;;;34.47;62.30;100828.34;5239867;28;20049;-54
2023/08/24 09:16:06;;;;;;;3.08;1.60;;;32.40;76.70;;;33.99;63.12;100822.38;5243954;28;20048;-55
2023/08/24 09:18:40;;;;;;;3.10;1.80;;;32.20;76.40;;;33.59;63.71;100808.59;5246550;28;20440;-53
2023/08/24 09:21:15;;;;;;;3.22;1.90;;;32.00;76.50;;;33.09;64.52;100793.53;5241807;28;20045;-55
2023/08/24 09:23:56;;;;;;;4.55;2.00;;;31.80;76.40;;;32.57;66.45;100791.13;5224803;28;20041;-53
2023/08/24 09:26:30;;;;;;;3.63;1.85;;;31.50;77.80;;;32.38;67.65;100779.63;5239308;28;20061;-53
2023/08/24 09:29:13;;;;;;;2.67;1.90;;;31.30;78.60;;;32.21;68.20;100766.19;5224938;28;20056;-52
2023/08/24 09:31:51;;;;;;;3.05;1.90;;;31.20;79.00;;;31.96;69.33;100755.91;5249800;28;20072;-53
2023/08/24 09:34:27;;;;;;;3.92;1.98;;;31.00;79.70;;;31.74;69.16;100745.38;5238263;28;20049;-53
2023/08/24 09:36:59;;;;;;;3.92;1.88;;;30.90;79.50;;;31.74;70.04;100742.69;5245636;28;20093;-54
2023/08/24 09:39:33;;;;;;;4.03;1.92;;;30.80;80.30;;;31.63;69.54;100737.03;5242960;28;20044;-53
2023/08/24 09:42:06;;;;;;;6.53;1.92;;;30.70;79.80;;;31.52;69.80;100730.38;5227559;28;20053;-53
2023/08/24 09:44:38;;;;;;;4.45;2.05;;;30.60;80.00;;;31.52;69.32;100730.38;5241371;28;20139;-50
2023/08/24 09:47:11;;;;;;;6.55;1.80;;;30.60;79.80;;;31.37;68.59;100733.91;5227991;28;20049;-54
2023/08/24 09:49:48;;;;;;;4.60;2.08;;;30.50;78.80;;;31.12;68.42;100753.09;5249400;28;20099;-53
2023/08/24 09:52:21;;;;;;;3.78;2.05;;;30.30;78.40;;;30.81;68.82;100751.09;5224955;28;20052;-54
2023/08/24 09:54:55;;;;;;;3.47;2.38;;;30.00;78.60;;;30.51;70.09;100743.53;5224708;28;20442;-50
2023/08/24 09:57:27;;;;;;;3.45;2.10;;;29.80;79.50;;;30.28;70.78;100738.41;5225904;28;20395;-52
2023/08/24 10:00:00;;;;;;;3.25;2.00;;;29.60;79.80;;;30.10;71.88;100741.97;5240642;28;20060;-51
2023/08/24 10:02:36;;;;;;;2.83;1.83;;;29.40;81.10;;;29.96;71.15;100748.84;5241594;28;20048;-49
2023/08/24 10:05:11;;;;;;;6.10;2.20;;;29.20;80.30;;;29.81;70.99;100754.94;5245945;28;20056;-48
2023/08/24 10:07:48;;;;;;;4.10;1.92;;;29.10;80.20;;;29.70;70.51;100763.47;5239298;28;20059;-50
2023/08/24 10:10:24;;;;;;;2.92;2.10;;;29.00;79.70;;;29.66;70.75;100774.41;5240408;28;20060;-50
2023/08/24 10:13:03;;;;;;;3.97;1.52;;;28.90;80.00;;;29.65;71.23;100753.84;5254991;28;20204;-48
2023/08/24 10:15:37;;;;;;;3.20;1.88;;;28.90;80.80;;;29.62;71.48;100754.00;5239173;28;20064;-49
2023/08/24 10:18:10;;;;;;;3.58;1.77;;;28.90;80.90;;;29.63;71.54;100774.56;5236575;28;20506;-50
2023/08/24 10:20:43;;;;;;;4.10;1.67;;;28.90;81.10;;;29.73;72.46;100770.50;5243332;28;20040;-49
2023/08/24 10:23:17;;;;;;;4.30;1.63;;;28.90;81.70;;;29.82;71.38;100767.41;5233478;28;20048;-49
2023/08/24 10:25:53;;;;;;;5.38;1.95;;;29.00;80.90;;;29.97;70.94;100771.19;5223678;28;20079;-50
2023/08/24 10:28:26;;;;;;;5.15;1.85;;;29.00;81.00;;;30.03;70.36;100764.69;5240976;28;20083;-49
2023/08/24 10:31:00;;;;;;;2.60;1.48;;;29.10;80.00;;;29.93;69.26;100762.44;5223632;28;20055;-49
2023/08/24 10:33:36;;;;;;;2.47;1.60;;;29.10;79.20;;;29.81;69.83;100776.41;5260579;28;20055;-49
2023/08/24 10:36:09;;;;;;;3.33;1.80;;;29.00;79.30;;;29.88;70.60;100777.00;5265828;28;20040;-48